sensor_id;sensor_type;location;lat;lon;timestamp;pressure;altitude;pressure_sealevel;temperature;humidity
51333;BME280;37417;48.118;11.734;2023-05-20T00:01:00;95519.84;;;9.75;100.00
51333;BME280;37417;48.118;11.734;2023-05-20T00:03:46;95517.03;;;9.76;100.00
51333;BME280;37417;48.118;11.734;2023-05-20T00:06:31;95516.03;;;9.77;100.00
51333;BME280;37417;48.118;11.734;2023-05-20T00:09:18;95518.28;;;9.81;100.00
51333;BME280;37417;48.118;11.734;2023-05-20T00:12:04;95520.13;;;9.87;100.00
51333;BME280;37417;48.118;11.734;2023-05-20T00:14:49;95516.34;;;9.89;100.00
51333;BME280;37417;48.118;11.734;2023-05-20T00:17:35;95511.31;;;9.88;100.00
51333;BME280;37417;48.118;11.734;2023-05-20T00:20:21;95518.94;;;9.89;100.00
51333;BME280;37417;48.118;11.734;2023-05-20T00:23:06;95512.13;;;9.88;100.00
51333;BME280;37417;48.118;11.734;2023-05-20T00:25:52;95518.38;;;9.94;100.00
51333;BME280;37417;48.118;11.734;2023-05-20T00:28:38;95503.97;;;9.98;100.00
51333;BME280;37417;48.118;11.734;2023-05-20T00:31:23;95518.63;;;9.99;100.00
51333;BME280;37417;48.118;11.734;2023-05-20T00:34:09;95520.03;;;10.01;100.00
51333;BME280;37417;48.118;11.734;2023-05-20T00:36:54;95518.66;;;10.06;100.00
51333;BME280;37417;48.118;11.734;2023-05-20T00:39:40;95513.50;;;10.12;100.00
51333;BME280;37417;48.118;11.734;2023-05-20T00:42:27;95511.31;;;10.16;100.00
51333;BME280;37417;48.118;11.734;2023-05-20T00:45:13;95509.75;;;10.21;100.00
51333;BME280;37417;48.118;11.734;2023-05-20T00:47:58;95511.00;;;10.25;100.00
51333;BME280;37417;48.118;11.734;2023-05-20T00:50:47;95512.81;;;10.25;100.00
51333;BME280;37417;48.118;11.734;2023-05-20T00:53:34;95510.63;;;10.28;100.00
51333;BME280;37417;48.118;11.734;2023-05-20T00:56:21;95511.25;;;10.30;100.00
51333;BME280;37417;48.118;11.734;2023-05-20T00:59:08;95505.84;;;10.32;100.00
51333;BME280;37417;48.118;11.734;2023-05-20T01:01:53;95514.66;;;10.31;100.00
51333;BME280;37417;48.118;11.734;2023-05-20T01:04:40;95501.41;;;10.33;100.00
51333;BME280;37417;48.118;11.734;2023-05-20T01:07:31;95499.00;;;10.31;100.00
51333;BME280;37417;48.118;11.734;2023-05-20T01:10:17;95497.00;;;10.33;100.00
51333;BME280;37417;48.118;11.734;2023-05-20T01:13:04;95493.41;;;10.34;100.00
51333;BME280;37417;48.118;11.734;2023-05-20T01:15:54;95502.25;;;10.40;100.00
51333;BME280;37417;48.118;11.734;2023-05-20T01:18:41;95491.63;;;10.41;100.00
51333;BME280;37417;48.118;11.734;2023-05-20T01:21:29;95483.25;;;10.46;100.00
51333;BME280;37417;48.118;11.734;2023-05-20T01:24:15;95485.63;;;10.41;100.00
51333;BME280;37417;48.118;11.734;2023-05-20T01:27:00;95489.22;;;10.40;100.00
51333;BME280;37417;48.118;11.734;2023-05-20T01:29:46;95490.59;;;10.36;100.00
51333;BME280;37417;48.118;11.734;2023-05-20T01:32:37;95483.97;;;10.33;100.00
51333;BME280;37417;48.118;11.734;2023-05-20T01:35:25;95487.94;;;10.29;100.00
51333;BME280;37417;48.118;11.734;2023-05-20T01:38:12;95482.97;;;10.34;100.00
51333;BME280;37417;48.118;11.734;2023-05-20T01:41:01;95488.94;;;10.28;100.00
51333;BME280;37417;48.118;11.734;2023-05-20T01:43:48;95493.81;;;10.31;100.00
51333;BME280;37417;48.118;11.734;2023-05-20T01:46:34;95489.75;;;10.28;100.00
51333;BME280;37417;48.118;11.734;2023-05-20T01:49:20;95490.59;;;10.36;100.00
51333;BME280;37417;48.118;11.734;2023-05-20T01:52:06;95487.81;;;10.37;100.00
51333;BME280;37417;48.118;11.734;2023-05-20T01:54:52;95481.78;;;10.37;100.00
51333;BME280;37417;48.118;11.734;2023-05-20T01:57:37;95485.81;;;10.39;100.00
51333;BME280;37417;48.118;11.734;2023-05-20T02:00:23;95479.75;;;10.32;100.00
51333;BME280;37417;48.118;11.734;2023-05-20T02:03:09;95476.72;;;10.28;100.00
51333;BME280;37417;48.118;11.734;2023-05-20T02:05:55;95479.38;;;10.35;100.00
51333;BME280;37417;48.118;11.734;2023-05-20T02:08:41;95478.19;;;10.38;100.00
51333;BME280;37417;48.118;11.734;2023-05-20T02:11:26;95482.59;;;10.37;100.00
51333;BME280;37417;48.118;11.734;2023-05-20T02:14:12;95483.81;;;10.41;100.00
51333;BME280;37417;48.118;11.734;2023-05-20T02:16:57;95475.19;;;10.41;100.00
51333;BME280;37417;48.118;11.734;2023-05-20T02:19:44;95474.97;;;10.42;100.00
51333;BME280;37417;48.118;11.734;2023-05-20T02:22:30;95477.38;;;10.37;100.00
51333;BME280;37417;48.118;11.734;2023-05-20T02:25:15;95482.41;;;10.39;100.00
51333;BME280;37417;48.118;11.734;2023-05-20T02:28:01;95479.41;;;10.42;100.00
51333;BME280;37417;48.118;11.734;2023-05-20T02:30:50;95488.22;;;10.41;100.00
51333;BME280;37417;48.118;11.734;2023-05-20T02:33:36;95485.00;;;10.39;100.00
51333;BME280;37417;48.118;11.734;2023-05-20T02:36:21;95485.25;;;10.44;100.00
51333;BME280;37417;48.118;11.734;2023-05-20T02:39:07;95483.97;;;10.33;100.00
51333;BME280;37417;48.118;11.734;2023-05-20T02:41:53;95478.56;;;10.35;100.00
51333;BME280;37417;48.118;11.734;2023-05-20T02:44:38;95478.59;;;10.41;100.00
51333;BME280;37417;48.118;11.734;2023-05-20T02:47:24;95475.19;;;10.41;100.00
51333;BME280;37417;48.118;11.734;2023-05-20T02:50:10;95471.78;;;10.40;100.00
51333;BME280;37417;48.118;11.734;2023-05-20T02:52:56;95475.75;;;10.36;100.00
51333;BME280;37417;48.118;11.734;2023-05-20T02:55:41;95469.72;;;10.36;100.00
51333;BME280;37417;48.118;11.734;2023-05-20T02:58:29;95482.97;;;10.34;100.00
51333;BME280;37417;48.118;11.734;2023-05-20T03:01:15;95485.97;;;10.31;100.00
51333;BME280;37417;48.118;11.734;2023-05-20T03:04:03;95480.13;;;10.29;100.00
51333;BME280;37417;48.118;11.734;2023-05-20T03:06:49;95485.75;;;10.26;100.00
51333;BME280;37417;48.118;11.734;2023-05-20T03:09:36;95489.75;;;10.28;100.00
51333;BME280;37417;48.118;11.734;2023-05-20T03:12:22;95489.16;;;10.26;100.00
51333;BME280;37417;48.118;11.734;2023-05-20T03:15:10;95493.00;;;10.30;100.00
51333;BME280;37417;48.118;11.734;2023-05-20T03:17:56;95491.00;;;10.33;100.00
51333;BME280;37417;48.118;11.734;2023-05-20T03:20:42;95498.00;;;10.32;100.00
51333;BME280;37417;48.118;11.734;2023-05-20T03:23:28;95490.75;;;10.27;100.00
51333;BME280;37417;48.118;11.734;2023-05-20T03:26:13;95490.97;;;10.26;100.00
51333;BME280;37417;48.118;11.734;2023-05-20T03:28:59;95486.28;;;10.21;100.00
51333;BME280;37417;48.118;11.734;2023-05-20T03:31:45;95476.13;;;10.26;100.00
51333;BME280;37417;48.118;11.734;2023-05-20T03:34:30;95480.91;;;10.23;100.00
51333;BME280;37417;48.118;11.734;2023-05-20T03:37:16;95480.06;;;10.22;100.00
51333;BME280;37417;48.118;11.734;2023-05-20T03:40:02;95475.69;;;10.23;100.00
51333;BME280;37417;48.118;11.734;2023-05-20T03:42:50;95489.16;;;10.26;100.00
51333;BME280;37417;48.118;11.734;2023-05-20T03:45:36;95489.75;;;10.28;100.00
51333;BME280;37417;48.118;11.734;2023-05-20T03:48:22;95496.97;;;10.26;100.00
51333;BME280;37417;48.118;11.734;2023-05-20T03:51:07;95499.97;;;10.30;100.00
51333;BME280;37417;48.118;11.734;2023-05-20T03:53:53;95499.81;;;10.32;100.00
51333;BME280;37417;48.118;11.734;2023-05-20T03:56:39;95500.19;;;10.28;100.00
51333;BME280;37417;48.118;11.734;2023-05-20T03:59:25;95505.03;;;10.32;100.00
51333;BME280;37417;48.118;11.734;2023-05-20T04:02:11;95500.19;;;10.28;100.00
51333;BME280;37417;48.118;11.734;2023-05-20T04:04:57;95506.25;;;10.36;100.00
51333;BME280;37417;48.118;11.734;2023-05-20T04:07:43;95507.84;;;10.37;100.00
51333;BME280;37417;48.118;11.734;2023-05-20T04:10:28;95502.25;;;10.40;100.00
51333;BME280;37417;48.118;11.734;2023-05-20T04:13:16;95495.44;;;10.39;100.00
51333;BME280;37417;48.118;11.734;2023-05-20T04:16:02;95492.25;;;10.43;100.00
51333;BME280;37417;48.118;11.734;2023-05-20T04:18:49;95492.84;;;10.39;100.00
51333;BME280;37417;48.118;11.734;2023-05-20T04:21:37;95494.25;;;10.41;100.00
51333;BME280;37417;48.118;11.734;2023-05-20T04:24:24;95494.44;;;10.40;100.00
51333;BME280;37417;48.118;11.734;2023-05-20T04:27:09;95486.66;;;10.46;100.00
51333;BME280;37417;48.118;11.734;2023-05-20T04:29:55;95493.50;;;10.54;100.00
51333;BME280;37417;48.118;11.734;2023-05-20T04:32:43;95484.72;;;10.68;100.00
51333;BME280;37417;48.118;11.734;2023-05-20T04:35:28;95472.31;;;10.70;100.00
51333;BME280;37417;48.118;11.734;2023-05-20T04:38:14;95472.19;;;10.92;100.00
51333;BME280;37417;48.118;11.734;2023-05-20T04:41:01;95466.72;;;10.87;100.00
51333;BME280;37417;48.118;11.734;2023-05-20T04:43:46;95461.94;;;10.90;100.00
51333;BME280;37417;48.118;11.734;2023-05-20T04:46:32;95461.28;;;10.81;100.00
51333;BME280;37417;48.118;11.734;2023-05-20T04:49:18;95458.53;;;10.90;100.00
51333;BME280;37417;48.118;11.734;2023-05-20T04:52:04;95468.34;;;10.88;100.00
51333;BME280;37417;48.118;11.734;2023-05-20T04:54:49;95474.00;;;11.04;100.00
51333;BME280;37417;48.118;11.734;2023-05-20T04:57:36;95478.47;;;11.17;100.00
51333;BME280;37417;48.118;11.734;2023-05-20T05:00:24;95477.88;;;11.15;100.00
51333;BME280;37417;48.118;11.734;2023-05-20T05:03:10;95475.28;;;11.28;100.00
51333;BME280;37417;48.118;11.734;2023-05-20T05:05:59;95470.88;;;11.42;100.00
51333;BME280;37417;48.118;11.734;2023-05-20T05:08:45;95464.44;;;11.45;100.00
51333;BME280;37417;48.118;11.734;2023-05-20T05:11:30;95460.22;;;11.44;100.00
51333;BME280;37417;48.118;11.734;2023-05-20T05:14:16;95452.59;;;11.42;100.00
51333;BME280;37417;48.118;11.734;2023-05-20T05:17:02;95450.34;;;11.32;100.00
51333;BME280;37417;48.118;11.734;2023-05-20T05:19:48;95451.16;;;11.46;100.00
51333;BME280;37417;48.118;11.734;2023-05-20T05:22:33;95458.41;;;11.64;100.00
51333;BME280;37417;48.118;11.734;2023-05-20T05:25:21;95449.38;;;11.66;100.00
51333;BME280;37417;48.118;11.734;2023-05-20T05:28:07;95437.50;;;11.64;100.00
51333;BME280;37417;48.118;11.734;2023-05-20T05:30:55;95432.50;;;11.82;100.00
51333;BME280;37417;48.118;11.734;2023-05-20T05:33:41;95427.06;;;11.84;100.00
51333;BME280;37417;48.118;11.734;2023-05-20T05:36:27;95425.88;;;11.93;100.00
51333;BME280;37417;48.118;11.734;2023-05-20T05:39:12;95420.59;;;12.06;100.00
51333;BME280;37417;48.118;11.734;2023-05-20T05:41:58;95427.44;;;12.07;100.00
51333;BME280;37417;48.118;11.734;2023-05-20T05:44:44;95427.41;;;12.20;100.00
51333;BME280;37417;48.118;11.734;2023-05-20T05:47:29;95430.44;;;12.17;100.00
51333;BME280;37417;48.118;11.734;2023-05-20T05:50:16;95420.59;;;12.13;100.00
51333;BME280;37417;48.118;11.734;2023-05-20T05:53:02;95429.03;;;12.15;100.00
51333;BME280;37417;48.118;11.734;2023-05-20T05:55:48;95425.00;;;12.19;100.00
51333;BME280;37417;48.118;11.734;2023-05-20T05:58:33;95416.63;;;12.48;100.00
51333;BME280;37417;48.118;11.734;2023-05-20T06:01:19;95419.63;;;12.59;100.00
51333;BME280;37417;48.118;11.734;2023-05-20T06:04:06;95413.06;;;12.43;100.00
51333;BME280;37417;48.118;11.734;2023-05-20T06:06:51;95420.50;;;12.39;100.00
51333;BME280;37417;48.118;11.734;2023-05-20T06:09:37;95411.94;;;13.02;100.00
51333;BME280;37417;48.118;11.734;2023-05-20T06:12:23;95404.72;;;12.97;100.00
51333;BME280;37417;48.118;11.734;2023-05-20T06:15:09;95401.44;;;13.40;100.00
51333;BME280;37417;48.118;11.734;2023-05-20T06:17:55;95406.00;;;13.45;100.00
51333;BME280;37417;48.118;11.734;2023-05-20T06:20:41;95400.72;;;13.51;100.00
51333;BME280;37417;48.118;11.734;2023-05-20T06:23:26;95399.06;;;13.57;100.00
51333;BME280;37417;48.118;11.734;2023-05-20T06:26:12;95399.34;;;13.74;100.00
51333;BME280;37417;48.118;11.734;2023-05-20T06:28:58;95401.06;;;13.62;100.00
51333;BME280;37417;48.118;11.734;2023-05-20T06:31:44;95393.59;;;14.02;100.00
51333;BME280;37417;48.118;11.734;2023-05-20T06:34:30;95394.25;;;13.79;100.00
51333;BME280;37417;48.118;11.734;2023-05-20T06:37:15;95380.66;;;13.64;100.00
51333;BME280;37417;48.118;11.734;2023-05-20T06:40:01;95384.00;;;13.52;100.00
51333;BME280;37417;48.118;11.734;2023-05-20T06:42:47;95390.25;;;13.51;100.00
51333;BME280;37417;48.118;11.734;2023-05-20T06:45:32;95397.34;;;13.44;100.00
51333;BME280;37417;48.118;11.734;2023-05-20T06:48:18;95391.47;;;13.24;100.00
51333;BME280;37417;48.118;11.734;2023-05-20T06:51:06;95388.91;;;13.42;100.00
51333;BME280;37417;48.118;11.734;2023-05-20T06:53:53;95382.97;;;14.15;100.00
51333;BME280;37417;48.118;11.734;2023-05-20T06:56:39;95375.81;;;14.41;100.00
51333;BME280;37417;48.118;11.734;2023-05-20T06:59:25;95381.56;;;14.98;100.00
51333;BME280;37417;48.118;11.734;2023-05-20T07:02:11;95377.41;;;15.20;100.00
51333;BME280;37417;48.118;11.734;2023-05-20T07:04:56;95362.72;;;17.60;100.00
51333;BME280;37417;48.118;11.734;2023-05-20T07:07:42;95367.31;;;18.04;100.00
51333;BME280;37417;48.118;11.734;2023-05-20T07:10:28;95367.91;;;18.72;100.00
51333;BME280;37417;48.118;11.734;2023-05-20T07:13:14;95373.78;;;18.13;100.00
51333;BME280;37417;48.118;11.734;2023-05-20T07:15:59;95373.25;;;17.60;100.00
51333;BME280;37417;48.118;11.734;2023-05-20T07:18:45;95369.13;;;17.65;100.00
51333;BME280;37417;48.118;11.734;2023-05-20T07:21:31;95365.56;;;17.09;100.00
51333;BME280;37417;48.118;11.734;2023-05-20T07:24:16;95372.31;;;17.67;100.00
51333;BME280;37417;48.118;11.734;2023-05-20T07:27:02;95367.75;;;17.62;100.00
51333;BME280;37417;48.118;11.734;2023-05-20T07:29:48;95358.84;;;18.89;100.00
51333;BME280;37417;48.118;11.734;2023-05-20T07:32:34;95362.00;;;19.51;100.00
51333;BME280;37417;48.118;11.734;2023-05-20T07:35:19;95359.19;;;19.99;100.00
51333;BME280;37417;48.118;11.734;2023-05-20T07:38:05;95348.66;;;20.72;100.00
51333;BME280;37417;48.118;11.734;2023-05-20T07:40:51;95348.84;;;22.49;87.00
51333;BME280;37417;48.118;11.734;2023-05-20T07:43:36;95354.59;;;23.21;81.31
51333;BME280;37417;48.118;11.734;2023-05-20T07:46:22;95351.41;;;25.02;72.97
51333;BME280;37417;48.118;11.734;2023-05-20T07:49:08;95347.34;;;24.67;70.77
51333;BME280;37417;48.118;11.734;2023-05-20T07:51:53;95344.81;;;23.80;68.75
51333;BME280;37417;48.118;11.734;2023-05-20T07:54:40;95340.72;;;24.40;67.44
51333;BME280;37417;48.118;11.734;2023-05-20T07:57:25;95340.38;;;24.23;65.62
51333;BME280;37417;48.118;11.734;2023-05-20T08:00:11;95346.81;;;23.30;68.31
51333;BME280;37417;48.118;11.734;2023-05-20T08:02:57;95335.94;;;22.87;71.92
51333;BME280;37417;48.118;11.734;2023-05-20T08:05:43;95342.25;;;22.41;72.99
51333;BME280;37417;48.118;11.734;2023-05-20T08:08:29;95336.84;;;23.45;68.10
51333;BME280;37417;48.118;11.734;2023-05-20T08:11:15;95334.47;;;24.93;61.42
51333;BME280;37417;48.118;11.734;2023-05-20T08:14:00;95332.94;;;25.76;59.04
51333;BME280;37417;48.118;11.734;2023-05-20T08:16:46;95327.78;;;24.04;64.68
51333;BME280;37417;48.118;11.734;2023-05-20T08:19:32;95330.56;;;24.18;63.90
51333;BME280;37417;48.118;11.734;2023-05-20T08:22:18;95315.78;;;25.11;64.08
51333;BME280;37417;48.118;11.734;2023-05-20T08:25:07;95318.06;;;25.18;63.28
51333;BME280;37417;48.118;11.734;2023-05-20T08:27:53;95309.25;;;26.15;59.56
51333;BME280;37417;48.118;11.734;2023-05-20T08:30:39;95322.50;;;27.12;57.28
51333;BME280;37417;48.118;11.734;2023-05-20T08:33:25;95317.16;;;26.48;55.99
51333;BME280;37417;48.118;11.734;2023-05-20T08:36:12;95320.03;;;24.94;59.61
51333;BME280;37417;48.118;11.734;2023-05-20T08:38:58;95316.13;;;25.56;60.36
51333;BME280;37417;48.118;11.734;2023-05-20T08:41:45;95321.47;;;24.67;60.12
51333;BME280;37417;48.118;11.734;2023-05-20T08:44:32;95321.13;;;25.11;59.37
51333;BME280;37417;48.118;11.734;2023-05-20T08:47:19;95311.47;;;25.16;61.04
51333;BME280;37417;48.118;11.734;2023-05-20T08:50:06;95312.69;;;24.67;63.07
51333;BME280;37417;48.118;11.734;2023-05-20T08:52:52;95309.44;;;25.07;59.19
51333;BME280;37417;48.118;11.734;2023-05-20T08:55:41;95317.59;;;24.36;57.58
51333;BME280;37417;48.118;11.734;2023-05-20T08:58:28;95311.47;;;23.53;60.46
51333;BME280;37417;48.118;11.734;2023-05-20T09:01:14;95317.31;;;22.82;63.23
51333;BME280;37417;48.118;11.734;2023-05-20T09:04:00;95315.41;;;23.32;66.39
51333;BME280;37417;48.118;11.734;2023-05-20T09:06:46;95314.16;;;23.19;66.26
51333;BME280;37417;48.118;11.734;2023-05-20T09:09:33;95313.28;;;24.40;61.86
51333;BME280;37417;48.118;11.734;2023-05-20T09:12:20;95307.25;;;24.72;61.81
51333;BME280;37417;48.118;11.734;2023-05-20T09:15:06;95315.47;;;24.56;61.01
51333;BME280;37417;48.118;11.734;2023-05-20T09:17:52;95305.75;;;24.84;59.42
51333;BME280;37417;48.118;11.734;2023-05-20T09:20:38;95315.16;;;24.39;61.43
51333;BME280;37417;48.118;11.734;2023-05-20T09:23:25;95306.34;;;24.81;58.50
51333;BME280;37417;48.118;11.734;2023-05-20T09:26:16;95311.28;;;22.66;63.70
51333;BME280;37417;48.118;11.734;2023-05-20T09:29:02;95317.72;;;24.68;59.04
51333;BME280;37417;48.118;11.734;2023-05-20T09:31:49;95318.00;;;25.23;59.06
51333;BME280;37417;48.118;11.734;2023-05-20T09:34:34;95306.00;;;25.07;59.75
51333;BME280;37417;48.118;11.734;2023-05-20T09:37:21;95297.50;;;25.37;58.30
51333;BME280;37417;48.118;11.734;2023-05-20T09:40:07;95304.94;;;26.01;58.69
51333;BME280;37417;48.118;11.734;2023-05-20T09:43:00;95301.38;;;26.74;57.10
51333;BME280;37417;48.118;11.734;2023-05-20T09:45:46;95300.88;;;27.08;54.27
51333;BME280;37417;48.118;11.734;2023-05-20T09:48:36;95301.00;;;26.67;53.01
51333;BME280;37417;48.118;11.734;2023-05-20T09:51:22;95305.66;;;27.87;49.87
51333;BME280;37417;48.118;11.734;2023-05-20T09:54:10;95289.38;;;27.52;52.67
51333;BME280;37417;48.118;11.734;2023-05-20T09:56:58;95288.81;;;27.64;51.39
51333;BME280;37417;48.118;11.734;2023-05-20T09:59:45;95286.16;;;25.92;54.19
51333;BME280;37417;48.118;11.734;2023-05-20T10:02:32;95286.84;;;25.00;56.29
51333;BME280;37417;48.118;11.734;2023-05-20T10:05:27;95286.56;;;24.45;58.05
51333;BME280;37417;48.118;11.734;2023-05-20T10:08:42;95278.50;;;24.26;57.09
51333;BME280;37417;48.118;11.734;2023-05-20T10:14:50;95276.44;;;24.98;58.15
51333;BME280;37417;48.118;11.734;2023-05-20T10:20:47;95277.25;;;26.10;56.79
51333;BME280;37417;48.118;11.734;2023-05-20T10:23:33;95276.44;;;26.24;50.53
51333;BME280;37417;48.118;11.734;2023-05-20T10:26:19;95272.69;;;26.11;51.47
51333;BME280;37417;48.118;11.734;2023-05-20T10:29:18;95265.97;;;27.13;53.07
51333;BME280;37417;48.118;11.734;2023-05-20T10:32:04;95275.00;;;28.11;52.56
51333;BME280;37417;48.118;11.734;2023-05-20T10:34:50;95272.00;;;28.69;49.96
51333;BME280;37417;48.118;11.734;2023-05-20T10:37:43;95257.59;;;29.43;47.19
51333;BME280;37417;48.118;11.734;2023-05-20T10:40:30;95260.63;;;28.72;48.29
51333;BME280;37417;48.118;11.734;2023-05-20T10:43:25;95255.09;;;27.63;50.24
51333;BME280;37417;48.118;11.734;2023-05-20T10:46:17;95249.34;;;27.56;47.33
51333;BME280;37417;48.118;11.734;2023-05-20T10:49:03;95252.59;;;25.86;52.53
51333;BME280;37417;48.118;11.734;2023-05-20T10:51:49;95249.81;;;25.77;52.67
51333;BME280;37417;48.118;11.734;2023-05-20T10:54:41;95247.97;;;26.69;51.76
51333;BME280;37417;48.118;11.734;2023-05-20T10:57:28;95243.66;;;26.82;51.38
51333;BME280;37417;48.118;11.734;2023-05-20T11:00:14;95249.41;;;28.44;48.05
51333;BME280;37417;48.118;11.734;2023-05-20T11:03:00;95241.03;;;28.46;45.03
51333;BME280;37417;48.118;11.734;2023-05-20T11:05:46;95233.91;;;29.45;47.15
51333;BME280;37417;48.118;11.734;2023-05-20T11:08:32;95223.00;;;30.77;42.92
51333;BME280;37417;48.118;11.734;2023-05-20T11:11:18;95224.47;;;31.08;43.92
51333;BME280;37417;48.118;11.734;2023-05-20T11:14:04;95219.34;;;31.15;41.12
51333;BME280;37417;48.118;11.734;2023-05-20T11:16:55;95230.28;;;30.77;40.49
51333;BME280;37417;48.118;11.734;2023-05-20T11:19:40;95222.88;;;30.44;43.75
51333;BME280;37417;48.118;11.734;2023-05-20T11:22:26;95225.28;;;32.36;39.61
51333;BME280;37417;48.118;11.734;2023-05-20T11:25:12;95223.75;;;30.36;40.55
51333;BME280;37417;48.118;11.734;2023-05-20T11:27:58;95208.50;;;29.81;41.93
51333;BME280;37417;48.118;11.734;2023-05-20T11:30:44;95210.28;;;31.77;39.16
51333;BME280;37417;48.118;11.734;2023-05-20T11:33:30;95216.06;;;32.77;37.92
51333;BME280;37417;48.118;11.734;2023-05-20T11:36:16;95198.50;;;32.06;37.22
51333;BME280;37417;48.118;11.734;2023-05-20T11:39:01;95207.50;;;32.47;37.54
51333;BME280;37417;48.118;11.734;2023-05-20T11:41:49;95198.81;;;30.89;38.42
51333;BME280;37417;48.118;11.734;2023-05-20T11:44:35;95200.19;;;32.11;36.22
51333;BME280;37417;48.118;11.734;2023-05-20T11:47:23;95200.28;;;32.26;36.47
51333;BME280;37417;48.118;11.734;2023-05-20T11:50:19;95194.66;;;31.70;37.98
51333;BME280;37417;48.118;11.734;2023-05-20T11:53:07;95192.38;;;30.82;39.21
51333;BME280;37417;48.118;11.734;2023-05-20T11:55:57;95184.25;;;30.69;38.84
51333;BME280;37417;48.118;11.734;2023-05-20T11:58:43;95191.09;;;31.91;36.97
51333;BME280;37417;48.118;11.734;2023-05-20T12:01:37;95182.16;;;31.08;35.82
51333;BME280;37417;48.118;11.734;2023-05-20T12:04:27;95184.50;;;30.56;35.89
51333;BME280;37417;48.118;11.734;2023-05-20T12:07:13;95188.19;;;30.72;38.77
51333;BME280;37417;48.118;11.734;2023-05-20T12:10:00;95183.97;;;31.74;36.89
51333;BME280;37417;48.118;11.734;2023-05-20T12:12:45;95175.22;;;30.65;38.28
51333;BME280;37417;48.118;11.734;2023-05-20T12:15:31;95177.34;;;30.81;35.72
51333;BME280;37417;48.118;11.734;2023-05-20T12:18:17;95178.66;;;29.09;41.92
51333;BME280;37417;48.118;11.734;2023-05-20T12:21:02;95177.22;;;29.21;39.98
51333;BME280;37417;48.118;11.734;2023-05-20T12:23:48;95182.28;;;29.22;41.28
51333;BME280;37417;48.118;11.734;2023-05-20T12:26:34;95170.47;;;28.71;41.01
51333;BME280;37417;48.118;11.734;2023-05-20T12:29:19;95165.97;;;29.83;38.88
51333;BME280;37417;48.118;11.734;2023-05-20T12:32:05;95172.53;;;28.92;39.14
51333;BME280;37417;48.118;11.734;2023-05-20T12:34:51;95171.94;;;27.15;42.01
51333;BME280;37417;48.118;11.734;2023-05-20T12:37:38;95174.38;;;25.94;45.96
51333;BME280;37417;48.118;11.734;2023-05-20T12:40:25;95180.25;;;26.46;45.25
51333;BME280;37417;48.118;11.734;2023-05-20T12:43:11;95182.72;;;25.92;46.77
51333;BME280;37417;48.118;11.734;2023-05-20T12:45:57;95175.97;;;25.40;48.25
51333;BME280;37417;48.118;11.734;2023-05-20T12:48:42;95170.84;;;26.49;46.25
51333;BME280;37417;48.118;11.734;2023-05-20T12:51:28;95180.66;;;28.00;45.08
51333;BME280;37417;48.118;11.734;2023-05-20T12:54:16;95176.81;;;28.67;42.00
51333;BME280;37417;48.118;11.734;2023-05-20T12:57:02;95176.06;;;28.00;44.17
51333;BME280;37417;48.118;11.734;2023-05-20T12:59:48;95172.03;;;28.90;45.03
51333;BME280;37417;48.118;11.734;2023-05-20T13:02:35;95167.31;;;30.48;42.82
51333;BME280;37417;48.118;11.734;2023-05-20T13:05:21;95169.53;;;30.88;42.74
51333;BME280;37417;48.118;11.734;2023-05-20T13:08:07;95167.28;;;30.90;42.33
51333;BME280;37417;48.118;11.734;2023-05-20T13:10:54;95160.56;;;30.12;40.90
51333;BME280;37417;48.118;11.734;2023-05-20T13:13:40;95165.03;;;30.08;42.89
51333;BME280;37417;48.118;11.734;2023-05-20T13:16:26;95150.69;;;29.19;42.15
51333;BME280;37417;48.118;11.734;2023-05-20T13:19:11;95152.81;;;28.62;44.08
51333;BME280;37417;48.118;11.734;2023-05-20T13:21:57;95151.13;;;27.43;45.64
51333;BME280;37417;48.118;11.734;2023-05-20T13:24:43;95142.53;;;28.29;45.76
51333;BME280;37417;48.118;11.734;2023-05-20T13:27:28;95150.13;;;28.44;45.44
51333;BME280;37417;48.118;11.734;2023-05-20T13:30:15;95133.53;;;28.77;46.30
51333;BME280;37417;48.118;11.734;2023-05-20T13:33:00;95141.72;;;28.11;46.45
51333;BME280;37417;48.118;11.734;2023-05-20T13:35:46;95142.13;;;27.70;46.43
51333;BME280;37417;48.118;11.734;2023-05-20T13:38:32;95140.34;;;27.25;45.67
51333;BME280;37417;48.118;11.734;2023-05-20T13:41:17;95127.84;;;27.52;46.85
51333;BME280;37417;48.118;11.734;2023-05-20T13:44:03;95132.94;;;27.00;47.07
51333;BME280;37417;48.118;11.734;2023-05-20T13:46:49;95129.81;;;26.39;47.58
51333;BME280;37417;48.118;11.734;2023-05-20T13:49:34;95131.03;;;25.70;45.02
51333;BME280;37417;48.118;11.734;2023-05-20T13:52:20;95126.88;;;25.08;46.92
51333;BME280;37417;48.118;11.734;2023-05-20T13:55:06;95112.03;;;24.70;47.02
51333;BME280;37417;48.118;11.734;2023-05-20T13:57:52;95114.03;;;24.26;48.89
51333;BME280;37417;48.118;11.734;2023-05-20T14:00:38;95110.28;;;24.09;49.82
51333;BME280;37417;48.118;11.734;2023-05-20T14:03:24;95103.53;;;24.16;52.57
51333;BME280;37417;48.118;11.734;2023-05-20T14:06:10;95101.66;;;23.98;52.95
51333;BME280;37417;48.118;11.734;2023-05-20T14:08:56;95111.72;;;24.01;52.38
51333;BME280;37417;48.118;11.734;2023-05-20T14:11:42;95100.00;;;23.59;53.68
51333;BME280;37417;48.118;11.734;2023-05-20T14:14:27;95105.31;;;23.64;53.37
51333;BME280;37417;48.118;11.734;2023-05-20T14:17:13;95101.22;;;23.48;54.35
51333;BME280;37417;48.118;11.734;2023-05-20T14:19:59;95100.28;;;24.00;53.86
51333;BME280;37417;48.118;11.734;2023-05-20T14:22:45;95093.09;;;24.39;53.55
51333;BME280;37417;48.118;11.734;2023-05-20T14:25:30;95086.66;;;24.40;52.94
51333;BME280;37417;48.118;11.734;2023-05-20T14:28:16;95089.47;;;24.48;52.11
51333;BME280;37417;48.118;11.734;2023-05-20T14:31:03;95080.84;;;24.38;50.92